Startpagina
METAR-TAF:

METAR-TAF

Vliegvelden :

Mauritius, Plaisance, Mauritius

breedte: 20-26S, lengte: 057-40E, hoogte: 55 m

Actueel weer

Dit bericht is 17 minuten geleden gemaakt, om 19:00 UTC
Wind 13 kt uit het oostzuidoosten
Temperatuur 25°C
Vochtigheid 69%
Druk 1023 hPa
Zicht 10 km of meer
Verspreide wolken op 1800 ft

METAR: FIMP 211900Z 12013KT 9999 SCT018 25/19 Q1023

Tijdstip: 23:17 (19:17 UTC)

Verwachting

Dit bericht is 2 uur en het 7 minuten geleden gemaakt, om 17:10 UTC
Verwachting geldig van 21 om 18 UTC tot 23 om 00 UTC
Wind 12 kt uit het oostzuidoosten met uitschieters tot 25 kt
Zicht 10 km of meer
Verspreide wolken op 1800 ft
Kans 30% :
Tijdelijke
van 22 om 00 UTC tot 22 om 06 UTC
Zicht: 7000 m
Weinig wolken op 1000 ft
Gebroken wolken op 1600 ft
Gebroken wolken op 5000 ft
lichte regenbuien

TAF: FIMP 211710Z 2118/2300 12012G25KT 9999 SCT018 PROB30 TEMPO 2200/2206 7000 -SHRA FEW010 BKN016 BKN050

Waarnemingen en weersverwachtingen van meer dan 4000 vliegvelden (METAR en TAF).

De beschikbare stations zijn de gele en rode punten op de kaart.

Ga met uw muis naar het station om de naam te zien.

Klik dan om waarnemingen en weersverwachtingen te zien.

kaart wijzigen: klik op de groene knoppen met een zwart kruis om in te zoomen, op de groene knop met een streepje om uit te zoomen of op de groene pijlen voor aangrenzende kaarten.


METAR-TAF: